createdAt,value
2022-10-18T00:01:18.731Z,19.80
2022-10-18T00:06:22.006Z,21.60
2022-10-18T00:11:25.560Z,23.20
2022-10-18T00:16:29.071Z,21.20
2022-10-18T00:21:32.704Z,22.50
2022-10-18T00:26:36.536Z,19.70
2022-10-18T00:31:39.937Z,20.50
2022-10-18T00:36:44.458Z,23.20
2022-10-18T00:41:49.058Z,24.10
2022-10-18T00:46:58.252Z,22.60
2022-10-18T00:52:18.166Z,20.50
2022-10-18T00:57:21.949Z,19.00
2022-10-18T01:02:26.764Z,29.40
2022-10-18T01:07:41.999Z,24.20
2022-10-18T01:13:15.647Z,25.90
2022-10-18T01:18:52.142Z,24.30
2022-10-18T01:24:18.755Z,22.60
2022-10-18T01:29:52.426Z,35.50
2022-10-18T01:35:11.710Z,31.70
2022-10-18T01:40:20.852Z,34.70
2022-10-18T01:45:26.772Z,46.20
2022-10-18T01:50:33.825Z,50.20
2022-10-18T01:55:57.830Z,60.30
2022-10-18T02:06:29.782Z,54.80
2022-10-18T02:11:36.225Z,56.80
2022-10-18T02:16:45.678Z,56.80
2022-10-18T02:21:52.123Z,43.90
2022-10-18T02:26:55.577Z,37.20
2022-10-18T02:32:20.366Z,27.10
2022-10-18T02:42:46.985Z,34.80
2022-10-18T02:47:50.295Z,32.50
2022-10-18T02:52:53.550Z,38.20
2022-10-18T02:57:56.817Z,47.50
2022-10-18T03:03:00.130Z,48.00
2022-10-18T03:08:03.852Z,38.70
2022-10-18T03:13:07.058Z,34.70
2022-10-18T03:18:10.930Z,31.40
2022-10-18T03:23:14.191Z,26.30
2022-10-18T03:28:17.446Z,26.30
2022-10-18T03:33:21.053Z,24.10
2022-10-18T03:38:24.447Z,27.60
2022-10-18T03:43:27.745Z,26.40
2022-10-18T03:48:31.190Z,32.30
2022-10-18T03:53:34.608Z,31.90
2022-10-18T03:58:37.894Z,31.40
2022-10-18T04:03:41.196Z,30.20
2022-10-18T04:08:44.620Z,28.60
2022-10-18T04:13:47.951Z,25.50
2022-10-18T04:18:51.234Z,28.00
2022-10-18T04:23:54.549Z,24.80
2022-10-18T04:28:58.082Z,26.20
2022-10-18T04:34:02.706Z,27.90
2022-10-18T04:39:06.324Z,30.70
2022-10-18T04:44:10.056Z,30.20
2022-10-18T04:49:13.466Z,25.30
2022-10-18T04:54:16.882Z,28.20
2022-10-18T04:59:20.881Z,28.20
2022-10-18T05:04:24.322Z,24.40
2022-10-18T05:09:27.831Z,28.20
2022-10-18T05:14:31.148Z,28.80
2022-10-18T05:19:34.867Z,30.40
2022-10-18T05:24:38.281Z,28.40
2022-10-18T05:29:41.799Z,32.70
2022-10-18T05:34:45.138Z,27.50
2022-10-18T05:39:48.489Z,31.90
2022-10-18T05:44:51.742Z,26.10
2022-10-18T05:49:55.346Z,28.00
2022-10-18T05:54:59.273Z,25.00
2022-10-18T06:00:03.096Z,26.10
2022-10-18T06:05:06.613Z,29.70
2022-10-18T06:10:10.864Z,29.70
2022-10-18T06:15:14.464Z,30.90
2022-10-18T06:20:18.119Z,28.40
2022-10-18T06:25:21.396Z,28.60
2022-10-18T06:30:24.979Z,41.50
2022-10-18T06:35:28.987Z,32.80
2022-10-18T06:40:38.193Z,29.40
2022-10-18T06:45:41.609Z,29.80
2022-10-18T06:51:02.020Z,25.30
2022-10-18T06:56:10.612Z,28.90
2022-10-18T07:01:17.001Z,25.90
2022-10-18T07:06:21.123Z,28.10
2022-10-18T07:11:27.551Z,26.70
2022-10-18T07:16:35.065Z,26.90
2022-10-18T07:21:38.478Z,24.10
2022-10-18T07:26:42.770Z,22.50
2022-10-18T07:31:46.029Z,26.40
2022-10-18T07:36:49.449Z,28.60
2022-10-18T07:41:52.860Z,26.20
2022-10-18T07:46:56.123Z,23.50
2022-10-18T07:51:59.496Z,22.20
2022-10-18T07:57:05.343Z,22.50
2022-10-18T08:02:09.798Z,26.20
2022-10-18T08:07:13.610Z,24.70
2022-10-18T08:12:16.915Z,26.20
2022-10-18T08:17:20.230Z,27.00
2022-10-18T08:22:23.638Z,25.20
2022-10-18T08:27:27.065Z,27.50
2022-10-18T08:32:30.674Z,23.50
2022-10-18T08:37:34.881Z,24.80
2022-10-18T08:43:06.068Z,23.80
2022-10-18T08:48:25.947Z,20.10
2022-10-18T08:54:56.718Z,25.30
2022-10-18T09:00:06.493Z,28.00
2022-10-18T09:05:56.817Z,25.60
2022-10-18T09:11:19.063Z,19.80
2022-10-18T09:17:06.405Z,20.50
2022-10-18T09:22:20.676Z,16.80
2022-10-18T09:27:38.291Z,16.20
2022-10-18T09:33:19.836Z,16.70
2022-10-18T09:38:31.073Z,12.90
2022-10-18T09:43:50.112Z,11.80
2022-10-18T09:49:14.286Z,13.00
2022-10-18T09:54:48.441Z,14.30
2022-10-18T09:59:51.959Z,15.00
2022-10-18T10:04:55.990Z,12.70
2022-10-18T10:10:20.351Z,10.90
2022-10-18T10:15:31.289Z,9.20
2022-10-18T10:20:50.583Z,11.80
2022-10-18T10:26:01.481Z,11.20
2022-10-18T10:31:25.070Z,17.00
2022-10-18T10:36:29.857Z,15.60
2022-10-18T10:41:34.415Z,15.70
2022-10-18T10:46:37.867Z,12.30
2022-10-18T10:51:41.461Z,14.90
2022-10-18T10:57:19.303Z,13.90
2022-10-18T11:02:34.368Z,12.10
2022-10-18T11:07:46.756Z,10.90
2022-10-18T11:13:02.908Z,12.30
2022-10-18T11:18:30.510Z,11.90
2022-10-18T11:23:38.749Z,10.60
2022-10-18T11:29:29.112Z,10.90
2022-10-18T11:35:03.174Z,13.70
2022-10-18T11:41:09.188Z,13.90
2022-10-18T11:46:44.738Z,12.00
2022-10-18T11:52:08.012Z,11.00
2022-10-18T11:57:40.307Z,12.60
2022-10-18T12:03:08.639Z,10.90
2022-10-18T12:08:19.473Z,10.90
2022-10-18T12:14:07.753Z,11.90
2022-10-18T12:19:27.631Z,11.50
2022-10-18T12:24:34.617Z,14.40
2022-10-18T12:29:52.723Z,13.30
2022-10-18T12:35:15.571Z,10.60
2022-10-18T12:40:43.037Z,13.50
2022-10-18T12:46:02.761Z,15.20
2022-10-18T12:51:19.462Z,17.30
2022-10-18T12:56:28.613Z,16.70
2022-10-18T13:01:52.174Z,16.30
2022-10-18T13:06:58.588Z,17.50
2022-10-18T13:12:10.836Z,15.90
2022-10-18T13:17:45.498Z,13.30
2022-10-18T13:23:23.782Z,14.80
2022-10-18T13:28:36.049Z,13.30
2022-10-18T13:33:42.083Z,11.80
2022-10-18T13:38:58.448Z,13.20
2022-10-18T13:44:24.159Z,14.20
2022-10-18T13:49:39.223Z,13.60
2022-10-18T13:55:39.258Z,15.50
2022-10-18T14:01:14.681Z,13.60
2022-10-18T14:06:29.293Z,13.70
2022-10-18T14:11:46.352Z,12.90
2022-10-18T14:17:15.413Z,11.00
2022-10-18T14:22:47.036Z,13.80
2022-10-18T14:28:12.229Z,9.20
2022-10-18T14:33:37.270Z,11.90
2022-10-18T14:39:02.938Z,13.80
2022-10-18T14:44:19.628Z,10.60
2022-10-18T14:49:23.110Z,12.30
2022-10-18T14:54:33.067Z,12.60
2022-10-18T14:59:53.942Z,13.20
2022-10-18T15:05:31.145Z,11.60
2022-10-18T15:10:36.050Z,15.90
2022-10-18T15:15:40.950Z,14.10
2022-10-18T15:20:44.565Z,13.70
2022-10-18T15:25:48.283Z,14.80
2022-10-18T15:30:51.915Z,17.20
2022-10-18T15:35:55.519Z,12.50
2022-10-18T15:40:59.187Z,14.40
2022-10-18T15:46:06.803Z,13.20
2022-10-18T15:51:48.231Z,12.60
2022-10-18T15:56:51.564Z,14.50
2022-10-18T16:01:55.678Z,14.70
2022-10-18T16:07:00.522Z,14.00
2022-10-18T16:12:05.839Z,16.20
2022-10-18T16:17:17.612Z,16.00
2022-10-18T16:22:20.914Z,18.40
2022-10-18T16:27:25.289Z,20.90
2022-10-18T16:32:28.642Z,20.30
2022-10-18T16:37:31.992Z,16.50
2022-10-18T16:42:35.553Z,16.20
2022-10-18T16:47:39.047Z,19.30
2022-10-18T16:52:43.314Z,17.10
2022-10-18T16:57:47.144Z,17.80
2022-10-18T17:02:51.007Z,19.60
2022-10-18T17:07:54.360Z,16.80
2022-10-18T17:12:57.726Z,19.30
2022-10-18T17:18:01.447Z,14.90
2022-10-18T17:23:04.863Z,14.10
2022-10-18T17:28:08.380Z,16.20
2022-10-18T17:33:13.274Z,16.10
2022-10-18T17:38:16.637Z,16.40
2022-10-18T17:43:20.232Z,17.00
2022-10-18T17:48:24.804Z,15.60
2022-10-18T17:53:29.401Z,16.50
2022-10-18T17:58:33.061Z,12.90
2022-10-18T18:03:36.560Z,14.40
2022-10-18T18:08:39.993Z,16.60
2022-10-18T18:13:43.508Z,9.80
2022-10-18T18:18:50.832Z,11.30
2022-10-18T18:23:54.843Z,13.60
2022-10-18T18:28:58.258Z,12.70
2022-10-18T18:34:02.256Z,10.30
2022-10-18T18:39:06.308Z,9.90
2022-10-18T18:44:09.713Z,12.00
2022-10-18T18:49:14.058Z,11.00
2022-10-18T18:54:17.473Z,12.30
2022-10-18T18:59:21.060Z,15.50
2022-10-18T19:04:24.305Z,13.10
2022-10-18T19:09:28.243Z,8.90
2022-10-18T19:14:31.591Z,11.10
2022-10-18T19:19:34.951Z,9.20
2022-10-18T19:24:38.365Z,8.10
2022-10-18T19:29:42.291Z,9.20
2022-10-18T19:34:45.702Z,9.10
2022-10-18T19:39:49.224Z,6.90
2022-10-18T19:44:52.841Z,9.70
2022-10-18T19:49:56.464Z,8.00
2022-10-18T19:54:59.771Z,11.10
2022-10-18T20:00:08.118Z,7.20
2022-10-18T20:05:14.078Z,9.50
2022-10-18T20:10:17.629Z,8.10
2022-10-18T20:15:20.933Z,6.40
2022-10-18T20:20:24.314Z,9.10
2022-10-18T20:25:27.628Z,7.70
2022-10-18T20:30:31.038Z,5.40
2022-10-18T20:35:34.304Z,10.30
2022-10-18T20:40:37.670Z,9.10
2022-10-18T20:45:40.980Z,7.40
2022-10-18T20:50:44.391Z,9.50
2022-10-18T20:55:47.707Z,7.80
2022-10-18T21:00:50.930Z,7.60
2022-10-18T21:05:54.257Z,7.50
2022-10-18T21:11:01.577Z,10.70
2022-10-18T21:16:07.570Z,9.70
2022-10-18T21:21:16.683Z,10.10
2022-10-18T21:26:24.517Z,7.00
2022-10-18T21:31:31.573Z,6.30
2022-10-18T21:36:37.544Z,8.80
2022-10-18T21:41:41.680Z,15.10
2022-10-18T21:46:45.360Z,11.50
2022-10-18T21:51:48.640Z,9.40
2022-10-18T21:56:52.022Z,8.70
2022-10-18T22:01:55.324Z,10.70
2022-10-18T22:06:59.756Z,7.20
2022-10-18T22:12:03.807Z,6.60
2022-10-18T22:17:07.100Z,8.00
2022-10-18T22:22:10.838Z,9.30
2022-10-18T22:27:14.243Z,10.60
2022-10-18T22:32:17.473Z,4.40
2022-10-18T22:37:20.757Z,8.10
2022-10-18T22:42:24.044Z,6.50
2022-10-18T22:47:27.482Z,8.30
2022-10-18T22:52:30.784Z,10.90
2022-10-18T22:57:34.315Z,6.30
2022-10-18T23:02:37.623Z,9.00
2022-10-18T23:07:40.933Z,7.10
2022-10-18T23:12:44.377Z,7.60
2022-10-18T23:17:50.137Z,8.20
2022-10-18T23:22:53.779Z,11.40
2022-10-18T23:27:57.880Z,7.60
2022-10-18T23:33:01.189Z,6.60
2022-10-18T23:38:04.494Z,7.70
2022-10-18T23:43:07.805Z,6.00
2022-10-18T23:48:11.317Z,10.20
2022-10-18T23:53:14.768Z,7.50
2022-10-18T23:58:18.061Z,5.50
